Time;durP1;ratioP1;P1;durP2;ratioP2;P2;SDS_P1;SDS_P2;PMS_P1;PMS_P2;Temp;Humidity;BMP_temperature;BMP_pressure;BME280_temperature;BME280_humidity;BME280_pressure;Samples;Min_cycle;Max_cycle;Signal;HPM_P1;HPM_P2
2022/11/23 00:01:34;;;;;;;12.77;9.10;;;3.90;99.90;;;-141.84;83.38;18814.03;5033841;28;20236;-59
2022/11/23 00:04:05;;;;;;;14.83;8.87;;;4.00;99.90;;;-141.84;83.33;18814.03;5033714;28;20236;-60
2022/11/23 00:06:34;;;;;;;12.07;9.00;;;4.00;99.90;;;-141.84;82.72;18809.97;5033917;28;20375;-61
2022/11/23 00:09:02;;;;;;;14.03;8.40;;;4.10;99.90;;;-141.84;83.26;18807.94;5034109;28;20206;-61
2022/11/23 00:11:35;;;;;;;10.97;8.63;;;4.10;99.90;;;-141.84;82.66;18761.22;5033515;28;20225;-63
2022/11/23 00:14:04;;;;;;;13.17;9.07;;;4.10;99.90;;;-141.84;82.81;18812.00;5033281;28;20233;-60
2022/11/23 00:16:32;;;;;;;11.97;8.90;;;4.00;99.90;;;-141.84;82.87;18789.66;5033705;28;20226;-61
2022/11/23 00:19:02;;;;;;;14.33;8.60;;;4.10;99.90;;;-141.84;83.48;18818.09;5033382;28;20229;-62
2022/11/23 00:21:32;;;;;;;13.10;8.93;;;4.00;99.90;;;-141.84;83.69;18785.59;5034047;28;20185;-62
2022/11/23 00:24:01;;;;;;;12.70;8.47;;;3.90;99.90;;;-141.84;84.30;18783.56;5033749;28;20210;-60
2022/11/23 00:26:29;;;;;;;12.23;8.80;;;3.90;99.90;;;-141.84;84.29;18779.50;5033123;28;20233;-60
2022/11/23 00:28:58;;;;;;;14.33;10.10;;;3.90;99.90;;;-141.84;84.02;18765.28;5032820;28;20245;-60
2022/11/23 00:31:27;;;;;;;13.53;8.80;;;3.90;99.90;;;-141.84;84.30;18777.47;5032326;28;20256;-61
2022/11/23 00:33:56;;;;;;;14.97;9.33;;;3.90;99.90;;;-141.84;83.87;18807.94;5033138;28;20249;-61
2022/11/23 00:36:27;;;;;;;13.43;9.80;;;4.00;99.90;;;-141.84;83.75;18799.81;5033625;28;20550;-61
2022/11/23 00:38:56;;;;;;;13.77;9.33;;;4.00;99.90;;;-141.84;83.55;18797.78;5032863;28;20236;-62
2022/11/23 00:41:27;;;;;;;12.57;8.87;;;4.00;99.90;;;-141.84;83.39;18830.31;5032740;28;20225;-61
2022/11/23 00:43:55;;;;;;;12.80;8.73;;;4.00;99.90;;;-141.84;81.51;18856.72;5032954;28;20229;-60
2022/11/23 00:46:27;;;;;;;13.60;9.17;;;4.20;99.90;;;-141.84;81.39;18828.28;5032512;28;20635;-61
2022/11/23 00:48:57;;;;;;;12.00;9.03;;;4.20;99.90;;;-141.84;81.27;18832.34;5032953;28;20296;-61
2022/11/23 00:51:29;;;;;;;12.90;9.37;;;4.30;99.90;;;-141.84;80.90;18824.22;5033433;28;20216;-62
2022/11/23 00:53:59;;;;;;;11.77;8.70;;;4.40;99.90;;;-141.84;81.60;18820.16;5033016;28;20222;-63
2022/11/23 00:56:28;;;;;;;12.20;8.80;;;4.30;99.90;;;-141.84;82.31;18816.06;5032580;28;20238;-61
2022/11/23 00:58:59;;;;;;;12.50;8.00;;;4.30;99.90;;;-141.84;82.92;18797.78;5032441;28;20732;-62
2022/11/23 01:01:32;;;;;;;12.10;8.23;;;4.30;99.90;;;-141.84;82.49;18818.09;5032733;28;20233;-61
2022/11/23 01:04:03;;;;;;;16.43;9.40;;;4.30;99.90;;;-141.84;82.51;18834.38;5032612;28;20237;-61
2022/11/23 01:06:33;;;;;;;12.93;8.97;;;4.30;99.90;;;-141.84;82.44;18814.03;5032863;28;20197;-61
2022/11/23 01:09:06;;;;;;;14.03;9.50;;;4.40;99.90;;;-141.84;81.93;18834.38;5052539;28;20637;-61
2022/11/23 01:11:34;;;;;;;14.40;8.83;;;4.40;99.90;;;-141.84;82.21;18834.38;5035620;28;20549;-62
2022/11/23 01:14:03;;;;;;;16.37;9.73;;;4.40;99.90;;;-141.84;81.49;18828.28;5032151;28;20668;-63
2022/11/23 01:16:37;;;;;;;14.10;8.80;;;4.50;99.90;;;-141.84;81.86;18828.28;5032378;28;20230;-63
2022/11/23 01:19:10;;;;;;;13.17;9.07;;;4.40;99.90;;;-141.84;82.21;18793.72;5032257;28;20237;-62
2022/11/23 01:21:39;;;;;;;13.93;8.50;;;4.40;99.90;;;-141.84;82.41;18836.41;5032598;28;20186;-63
2022/11/23 01:24:10;;;;;;;15.47;9.00;;;4.50;99.90;;;-141.84;82.08;18793.72;5032727;28;20198;-62
2022/11/23 01:26:38;;;;;;;11.20;8.07;;;4.50;99.90;;;-141.84;82.03;18822.19;5032013;28;20237;-63
2022/11/23 01:29:06;;;;;;;15.20;9.07;;;4.50;99.90;;;-141.84;82.29;18838.44;5031982;28;20236;-63
2022/11/23 01:31:36;;;;;;;12.53;9.03;;;4.50;99.90;;;-141.84;82.39;18842.50;5032285;28;20233;-62
2022/11/23 01:34:13;;;;;;;15.10;8.27;;;4.50;99.90;;;-141.84;82.32;18830.31;5031920;28;20246;-62
2022/11/23 01:36:42;;;;;;;13.07;8.77;;;4.50;99.90;;;-141.84;82.63;18791.69;5032196;28;20199;-63
2022/11/23 01:39:12;;;;;;;13.13;9.50;;;4.50;99.90;;;-141.84;81.45;18848.59;5032451;28;20202;-62
2022/11/23 01:41:43;;;;;;;13.37;8.97;;;4.60;99.90;;;-141.84;81.23;18875.00;5031744;28;20252;-62
2022/11/23 01:44:28;;;;;;;13.93;8.87;;;4.70;99.90;;;-141.84;81.04;18868.91;5031626;28;20313;-63
2022/11/23 01:47:01;;;;;;;11.47;9.00;;;4.70;99.90;;;-141.84;80.67;18872.97;5031548;28;20238;-62
2022/11/23 01:49:35;;;;;;;13.33;9.00;;;4.70;99.90;;;-141.84;80.48;18903.44;5031744;28;20280;-64
2022/11/23 01:52:09;;;;;;;14.43;8.47;;;4.70;99.90;;;-141.84;79.84;18875.00;5031893;28;20287;-62
2022/11/23 01:54:44;;;;;;;13.03;9.60;;;4.80;99.90;;;-141.84;80.11;18842.50;5031487;28;20648;-63
2022/11/23 01:57:21;;;;;;;13.27;9.00;;;4.80;99.90;;;-141.84;79.95;18858.75;5032322;28;20186;-62
2022/11/23 01:59:51;;;;;;;16.90;9.60;;;4.80;99.90;;;-141.84;80.55;18846.56;5031300;28;20222;-63
2022/11/23 02:02:21;;;;;;;11.33;8.77;;;4.80;99.90;;;-141.84;80.24;18895.31;5031507;28;20226;-62
2022/11/23 02:04:51;;;;;;;14.57;8.60;;;4.80;99.90;;;-141.84;81.09;18877.03;5031240;28;20233;-62
2022/11/23 02:07:22;;;;;;;13.03;8.77;;;4.70;99.90;;;-141.84;80.30;18846.56;5031730;28;20226;-62
2022/11/23 02:09:52;;;;;;;12.43;8.37;;;4.80;99.90;;;-141.84;80.60;18872.97;5030966;28;20732;-62
2022/11/23 02:12:20;;;;;;;11.57;8.20;;;4.80;99.90;;;-141.84;81.00;18846.56;5031828;28;20556;-62
2022/11/23 02:14:48;;;;;;;11.67;8.47;;;4.80;99.90;;;-141.84;81.17;18866.88;5030755;28;20292;-62
2022/11/23 02:17:16;;;;;;;11.80;8.27;;;4.80;99.90;;;-141.84;81.42;18893.28;5031310;28;20307;-62
2022/11/23 02:20:02;;;;;;;13.70;8.53;;;4.80;99.90;;;-141.84;81.48;18862.81;5031280;28;20691;-63
2022/11/23 02:22:42;;;;;;;12.83;8.97;;;4.80;99.90;;;-141.84;81.54;18846.56;5031171;28;20228;-63
2022/11/23 02:25:22;;;;;;;13.43;8.80;;;4.80;99.90;;;-141.84;80.37;18858.75;5030865;28;20226;-62
2022/11/23 02:27:53;;;;;;;13.17;8.70;;;4.80;99.90;;;-141.84;79.49;18866.88;5031128;28;20193;-63
2022/11/23 02:30:21;;;;;;;12.00;8.47;;;4.90;99.90;;;-141.84;80.69;18840.47;5031163;28;20701;-63
2022/11/23 02:32:49;;;;;;;13.93;9.10;;;4.70;99.90;;;-141.84;81.46;18866.88;5030943;28;20256;-63
2022/11/23 02:35:18;;;;;;;12.80;8.90;;;4.70;99.90;;;-141.84;82.09;18820.16;5030695;28;20229;-62
2022/11/23 02:37:46;;;;;;;14.70;9.10;;;4.60;99.90;;;-141.84;82.41;18842.50;5030739;28;20233;-63
2022/11/23 02:40:31;;;;;;;12.13;9.23;;;4.60;99.90;;;-141.84;81.95;18838.44;5030569;28;20640;-64
2022/11/23 02:43:01;;;;;;;12.93;9.23;;;4.60;99.90;;;-141.84;82.17;18832.34;5030827;28;20236;-63
2022/11/23 02:45:38;;;;;;;15.80;8.93;;;4.60;99.90;;;-141.84;80.77;18852.66;5031067;28;20649;-62
2022/11/23 02:48:07;;;;;;;12.23;7.83;;;4.70;99.90;;;-141.84;80.90;18893.28;5051026;28;20229;-63
2022/11/23 02:50:35;;;;;;;12.93;8.73;;;4.80;99.90;;;-141.84;80.97;18850.63;5050339;28;20793;-62
2022/11/23 02:53:03;;;;;;;11.27;7.77;;;4.80;99.90;;;-141.84;81.06;18848.59;5049941;28;20251;-63
2022/11/23 02:55:31;;;;;;;13.00;8.50;;;4.80;99.90;;;-141.84;80.71;18868.91;5050185;28;20255;-63
2022/11/23 02:58:01;;;;;;;12.90;8.70;;;4.80;99.90;;;-141.84;80.69;18877.03;5050207;28;20286;-63
2022/11/23 03:00:30;;;;;;;12.27;8.67;;;4.90;99.90;;;-141.84;81.08;18877.03;5050995;28;20217;-62
2022/11/23 03:03:01;;;;;;;12.40;8.93;;;4.80;99.90;;;-141.84;80.71;18895.31;5050725;28;20242;-63
2022/11/23 03:05:29;;;;;;;12.83;8.70;;;4.90;99.90;;;-141.84;80.86;18899.38;5050122;28;20785;-63
2022/11/23 03:07:57;;;;;;;13.33;8.27;;;4.90;99.90;;;-141.84;80.88;18870.94;5050452;28;20283;-63
2022/11/23 03:10:26;;;;;;;11.27;8.10;;;4.80;99.90;;;-141.84;81.47;18848.59;5049901;28;20229;-63
2022/11/23 03:12:56;;;;;;;12.57;7.87;;;4.80;99.90;;;-141.84;81.65;18862.81;5050222;28;20716;-62
2022/11/23 03:15:25;;;;;;;12.73;8.87;;;4.80;99.90;;;-141.84;82.03;18838.44;5050769;28;20280;-63
2022/11/23 03:17:53;;;;;;;13.20;8.67;;;4.70;99.90;;;-141.84;81.73;18879.06;5050110;28;20232;-62
2022/11/23 03:20:21;;;;;;;11.50;8.60;;;4.70;99.90;;;-141.84;81.33;18854.69;5050093;28;20225;-62
2022/11/23 03:22:50;;;;;;;13.40;9.40;;;4.70;99.90;;;-141.84;81.73;18846.56;5050072;28;20244;-63
2022/11/23 03:25:18;;;;;;;13.30;8.60;;;4.70;99.90;;;-141.84;82.04;18864.84;5050174;28;20229;-63
2022/11/23 03:27:46;;;;;;;12.50;9.13;;;4.70;99.90;;;-141.84;82.28;18834.38;5049819;28;20700;-62
2022/11/23 03:30:15;;;;;;;15.63;9.03;;;4.70;99.90;;;-141.84;82.56;18858.75;5051015;28;20200;-62
2022/11/23 03:32:45;;;;;;;16.80;9.53;;;4.70;99.90;;;-141.84;82.72;18836.41;5049890;28;20236;-61
2022/11/23 03:35:13;;;;;;;13.90;8.90;;;4.70;99.90;;;-141.84;82.90;18836.41;5050050;28;20229;-63
2022/11/23 03:37:41;;;;;;;10.60;8.30;;;4.70;99.90;;;-141.84;82.79;18856.72;5049842;28;20229;-62
2022/11/23 03:40:11;;;;;;;13.03;8.53;;;4.80;99.90;;;-141.84;82.47;18875.00;5050035;28;20240;-64
2022/11/23 03:42:40;;;;;;;13.33;8.30;;;4.80;99.90;;;-141.84;82.37;18860.78;5050231;28;20204;-64
2022/11/23 03:45:09;;;;;;;10.50;7.77;;;4.90;99.90;;;-141.84;81.56;18875.00;5050533;28;20255;-62
2022/11/23 03:47:38;;;;;;;12.70;8.97;;;5.00;99.90;;;-141.84;81.47;18875.00;5049722;28;20244;-63
2022/11/23 03:50:09;;;;;;;16.47;9.57;;;5.00;99.90;;;-141.84;81.54;18870.94;5050061;28;20228;-62
2022/11/23 03:52:37;;;;;;;14.43;8.63;;;5.00;99.90;;;-141.84;82.11;18840.47;5050312;28;20236;-62
2022/11/23 03:55:06;;;;;;;13.23;8.47;;;5.00;99.90;;;-141.84;82.55;18834.38;5049628;28;20697;-62
2022/11/23 03:57:35;;;;;;;13.50;9.03;;;4.90;99.90;;;-141.84;82.67;18832.34;5050056;28;20217;-63
2022/11/23 04:00:04;;;;;;;12.53;9.07;;;4.90;99.90;;;-141.84;82.85;18836.41;5050328;28;20197;-62
2022/11/23 04:02:32;;;;;;;11.60;8.33;;;4.80;99.90;;;-141.84;83.26;18850.63;5049597;28;20225;-63
2022/11/23 04:05:00;;;;;;;12.90;8.87;;;4.80;99.90;;;-141.84;83.58;18838.44;5051687;28;20240;-62
2022/11/23 04:07:30;;;;;;;11.63;8.30;;;4.70;99.90;;;-141.84;84.07;18830.31;5053368;28;20233;-62
2022/11/23 04:09:58;;;;;;;11.20;8.27;;;4.60;99.90;;;-141.84;84.46;18799.81;5053582;28;20232;-61
2022/11/23 04:12:26;;;;;;;15.33;9.20;;;4.50;99.90;;;-141.84;84.90;18822.19;5053905;28;20206;-62
2022/11/23 04:14:54;;;;;;;13.17;9.33;;;4.50;99.90;;;-141.84;84.99;18826.25;5053220;28;20320;-62
2022/11/23 04:17:23;;;;;;;11.63;8.40;;;4.40;99.90;;;-141.84;84.84;18803.88;5053184;28;20225;-62
2022/11/23 04:19:51;;;;;;;14.40;9.33;;;4.40;99.90;;;-141.84;84.97;18846.56;5053311;28;20233;-63
2022/11/23 04:22:19;;;;;;;11.80;8.80;;;4.40;99.90;;;-141.84;85.31;18807.94;5053253;28;20245;-63
2022/11/23 04:24:48;;;;;;;12.03;9.07;;;4.30;99.90;;;-141.84;85.80;18773.41;5053301;28;20197;-63
2022/11/23 04:27:16;;;;;;;11.53;8.60;;;4.30;99.90;;;-141.84;86.10;18789.66;5053585;28;20208;-63
2022/11/23 04:29:45;;;;;;;12.50;8.97;;;4.20;99.90;;;-141.84;86.43;18779.50;5052797;28;20275;-63
2022/11/23 04:32:13;;;;;;;11.13;8.73;;;4.10;99.90;;;-141.84;86.92;18785.59;5052945;28;20716;-63
2022/11/23 04:34:41;;;;;;;12.37;8.57;;;4.00;99.90;;;-141.84;87.33;18779.50;5053056;28;20228;-62
2022/11/23 04:37:09;;;;;;;13.83;9.03;;;3.90;99.90;;;-141.84;87.72;18763.25;5052683;28;20727;-63
2022/11/23 04:39:40;;;;;;;16.03;9.53;;;3.90;99.90;;;-141.84;88.04;18757.16;5053078;28;20207;-63
2022/11/23 04:42:12;;;;;;;14.80;9.90;;;3.90;99.90;;;-141.84;88.11;18759.19;5053269;28;20208;-63
2022/11/23 04:44:40;;;;;;;11.93;8.87;;;3.90;99.90;;;-141.84;88.40;18791.69;5052706;28;20724;-63
2022/11/23 04:47:13;;;;;;;14.03;9.70;;;3.90;99.90;;;-141.84;88.44;18793.72;5052544;28;20239;-62
2022/11/23 04:49:41;;;;;;;13.30;9.03;;;3.90;99.90;;;-141.84;88.41;18747.00;5052750;28;20720;-62
2022/11/23 04:52:09;;;;;;;12.67;8.53;;;3.90;99.90;;;-141.84;88.51;18751.06;5052577;28;20244;-62
2022/11/23 04:54:37;;;;;;;13.07;9.77;;;3.80;99.90;;;-141.84;88.78;18736.84;5052763;28;20213;-62
2022/11/23 04:57:06;;;;;;;13.27;9.57;;;3.80;99.90;;;-141.84;89.08;18761.22;5052701;28;20742;-63
2022/11/23 04:59:35;;;;;;;15.40;9.80;;;3.70;99.90;;;-141.84;89.20;18730.75;5052366;28;20262;-62
2022/11/23 05:02:03;;;;;;;12.57;9.30;;;3.70;99.90;;;-141.84;89.38;18706.38;5053044;28;20259;-62
2022/11/23 05:04:33;;;;;;;15.80;9.90;;;3.70;99.90;;;-141.84;89.59;18740.91;5052561;28;20228;-62
2022/11/23 05:07:01;;;;;;;16.50;10.07;;;3.70;99.90;;;-141.84;89.69;18742.94;5052653;28;20225;-62
2022/11/23 05:09:29;;;;;;;16.00;9.93;;;3.60;99.90;;;-141.84;89.61;18747.00;5052501;28;20672;-63
2022/11/23 05:11:58;;;;;;;14.97;9.87;;;3.70;99.90;;;-141.84;89.75;18716.53;5052415;28;20243;-62
2022/11/23 05:14:26;;;;;;;12.80;10.07;;;3.60;99.90;;;-141.84;90.30;18716.53;5051980;28;20239;-62
2022/11/23 05:16:56;;;;;;;16.03;9.93;;;3.60;99.90;;;-141.84;90.13;18744.97;5051510;28;20243;-63
2022/11/23 05:19:24;;;;;;;13.90;10.07;;;3.60;99.90;;;-141.84;90.43;18738.88;5052049;28;20228;-63
2022/11/23 05:21:52;;;;;;;13.23;9.27;;;3.60;99.90;;;-141.84;90.51;18702.28;5051976;28;20680;-63
2022/11/23 05:24:20;;;;;;;13.47;9.00;;;3.50;99.90;;;-141.84;90.61;18724.66;5052566;28;20257;-62
2022/11/23 05:26:48;;;;;;;14.33;10.27;;;3.50;99.90;;;-141.84;90.78;18702.28;5051780;28;20774;-64
2022/11/23 05:29:23;;;;;;;14.07;10.13;;;3.50;99.90;;;-141.84;90.98;18698.22;5051532;28;20614;-65
2022/11/23 05:31:51;;;;;;;15.97;10.20;;;3.40;99.90;;;-141.84;91.09;18722.63;5052049;28;20232;-63
2022/11/23 05:34:20;;;;;;;15.00;9.87;;;3.40;99.90;;;-141.84;91.23;18734.81;5051647;28;20229;-62
2022/11/23 05:36:48;;;;;;;13.63;9.93;;;3.40;99.90;;;-141.84;91.24;18706.38;5051944;28;20221;-63
2022/11/23 05:39:17;;;;;;;18.60;10.53;;;3.40;99.90;;;-141.84;91.31;18722.63;5051891;28;20685;-61
2022/11/23 05:41:45;;;;;;;13.87;10.30;;;3.40;99.90;;;-141.84;91.39;18702.28;5051600;28;20240;-63
2022/11/23 05:44:13;;;;;;;15.13;10.67;;;3.40;99.90;;;-141.84;91.39;18710.44;5051288;28;20289;-63
2022/11/23 05:46:41;;;;;;;13.50;9.87;;;3.40;99.90;;;-141.84;91.58;18706.38;5051565;28;20235;-62
2022/11/23 05:49:10;;;;;;;16.43;11.30;;;3.40;99.90;;;-141.84;91.49;18700.25;5051581;28;20232;-62
2022/11/23 05:51:40;;;;;;;15.70;11.27;;;3.40;99.90;;;-141.84;91.20;18714.50;5051572;28;20258;-63
2022/11/23 05:54:08;;;;;;;16.77;10.67;;;3.50;99.90;;;-141.84;91.30;18716.53;5052098;28;20204;-62
2022/11/23 05:56:36;;;;;;;17.30;10.90;;;3.40;99.90;;;-141.84;91.33;18681.97;5051494;28;20257;-63
2022/11/23 05:59:07;;;;;;;19.43;11.40;;;3.40;99.90;;;-141.84;91.21;18720.59;5051102;28;20231;-65
2022/11/23 06:01:35;;;;;;;15.70;10.53;;;3.40;99.90;;;-141.84;91.53;18688.06;5051382;28;20239;-63
2022/11/23 06:04:05;;;;;;;17.83;11.07;;;3.40;99.90;;;-141.84;91.13;18700.25;5051347;28;20242;-63
2022/11/23 06:06:33;;;;;;;15.30;10.93;;;3.50;99.90;;;-141.84;91.23;18686.03;5051070;28;20197;-62
2022/11/23 06:09:03;;;;;;;14.80;10.80;;;3.50;99.90;;;-141.84;91.24;18700.25;5051468;28;20722;-64
2022/11/23 06:11:31;;;;;;;15.30;11.13;;;3.50;99.90;;;-141.84;91.28;18667.75;5050890;28;20232;-64
2022/11/23 06:13:59;;;;;;;18.70;11.73;;;3.50;99.90;;;-141.84;91.38;18690.09;5050814;28;20435;-65
2022/11/23 06:16:27;;;;;;;17.57;11.07;;;3.50;99.90;;;-141.84;91.60;18718.56;5050972;28;20236;-62
2022/11/23 06:18:56;;;;;;;16.37;11.30;;;3.50;99.90;;;-141.84;91.66;18710.44;5051086;28;20264;-63
2022/11/23 06:21:24;;;;;;;18.60;12.30;;;3.50;99.90;;;-141.84;91.62;18688.06;5051736;28;20615;-63
2022/11/23 06:23:52;;;;;;;20.50;12.50;;;3.50;99.90;;;-141.84;91.90;18718.56;5051026;28;20286;-62
2022/11/23 06:26:21;;;;;;;20.33;12.03;;;3.60;99.90;;;-141.84;91.69;18708.41;5051019;28;20225;-64
2022/11/23 06:28:49;;;;;;;17.10;12.27;;;3.60;99.90;;;-141.84;91.89;18702.28;5049908;28;20244;-63
2022/11/23 06:31:18;;;;;;;15.23;10.97;;;3.60;99.90;;;-141.84;91.88;18706.38;5051001;28;20225;-62
2022/11/23 06:33:46;;;;;;;18.63;12.57;;;3.60;99.90;;;-141.84;92.01;18675.88;5050846;28;20201;-64
2022/11/23 06:36:14;;;;;;;19.70;12.27;;;3.60;99.90;;;-141.84;91.54;18677.91;5050954;28;20278;-63
2022/11/23 06:38:42;;;;;;;20.03;12.20;;;3.60;99.90;;;-141.84;90.41;18706.38;5050580;28;20228;-62
2022/11/23 06:41:10;;;;;;;18.10;12.73;;;3.70;99.90;;;-141.84;90.09;18684.00;5050451;28;20236;-64
2022/11/23 06:43:40;;;;;;;21.60;12.77;;;3.70;99.90;;;-141.84;89.77;18694.16;5050468;28;20225;-64
2022/11/23 06:46:11;;;;;;;17.33;12.07;;;3.60;99.90;;;-141.84;89.92;18702.28;5050497;28;20239;-63
2022/11/23 06:48:39;;;;;;;15.20;11.80;;;3.60;99.90;;;-141.84;90.19;18708.41;5050477;28;20243;-63
2022/11/23 06:51:07;;;;;;;17.63;11.73;;;3.60;99.90;;;-141.84;90.13;18712.47;5050693;28;20209;-62
2022/11/23 06:53:35;;;;;;;15.93;11.73;;;3.60;99.90;;;-141.84;90.21;18706.38;5050343;28;20234;-63
2022/11/23 06:56:04;;;;;;;18.97;11.93;;;3.60;99.90;;;-141.84;90.30;18700.25;5049954;28;20232;-64
2022/11/23 06:58:32;;;;;;;22.53;13.10;;;3.60;99.90;;;-141.84;90.40;18688.06;5050292;28;20788;-62
2022/11/23 07:01:05;;;;;;;18.00;11.47;;;3.60;99.90;;;-141.84;90.58;18722.63;5050431;28;20577;-63
2022/11/23 07:03:33;;;;;;;16.07;11.50;;;3.60;99.90;;;-141.84;90.87;18677.91;5050449;28;20188;-63
2022/11/23 07:06:06;;;;;;;21.70;12.50;;;3.60;99.90;;;-141.84;90.69;18704.31;5050966;28;20300;-61
2022/11/23 07:08:35;;;;;;;16.33;12.40;;;3.60;99.90;;;-141.84;90.59;18720.59;5050318;28;20580;-62
2022/11/23 07:11:05;;;;;;;16.73;12.27;;;3.60;99.90;;;-141.84;90.61;18700.25;5050045;28;20275;-62
2022/11/23 07:13:33;;;;;;;18.70;12.20;;;3.70;99.90;;;-141.84;90.57;18677.91;5050244;28;20229;-63
2022/11/23 07:16:03;;;;;;;18.33;12.60;;;3.70;99.90;;;-141.84;90.64;18720.59;5050091;28;20724;-65
2022/11/23 07:18:31;;;;;;;18.13;12.53;;;3.70;99.90;;;-141.84;90.82;18710.44;5051014;28;20201;-62
2022/11/23 07:20:59;;;;;;;20.40;13.17;;;3.70;99.90;;;-141.84;90.61;18742.94;5050321;28;20668;-62
2022/11/23 07:23:28;;;;;;;18.03;11.83;;;3.70;99.90;;;-141.84;90.44;18712.47;5034149;28;20234;-64
2022/11/23 07:25:56;;;;;;;16.67;12.00;;;3.80;99.90;;;-141.84;90.51;18694.16;5030036;28;20230;-62
2022/11/23 07:28:24;;;;;;;16.20;11.03;;;3.80;99.90;;;-141.84;90.55;18706.38;5030213;28;20467;-64
2022/11/23 07:30:52;;;;;;;19.17;12.07;;;3.80;99.90;;;-141.84;90.46;18730.75;5030129;28;20233;-62
2022/11/23 07:33:21;;;;;;;16.00;11.47;;;3.90;99.90;;;-141.84;90.46;18716.53;5030794;28;20646;-62
2022/11/23 07:35:49;;;;;;;19.43;12.00;;;3.80;99.90;;;-141.84;90.54;18716.53;5029893;28;20233;-62
2022/11/23 07:38:18;;;;;;;16.70;11.37;;;3.80;99.90;;;-141.84;90.57;18702.28;5029777;28;20233;-62
2022/11/23 07:40:50;;;;;;;15.37;11.10;;;3.80;99.90;;;-141.84;90.45;18698.22;5033081;28;20221;-63
2022/11/23 07:43:18;;;;;;;14.37;10.53;;;3.80;99.90;;;-141.84;90.71;18665.72;5033923;28;20233;-63
2022/11/23 07:45:46;;;;;;;16.80;12.13;;;3.80;99.90;;;-141.84;90.73;18700.25;5033730;28;20250;-62
2022/11/23 07:48:15;;;;;;;16.93;11.50;;;3.90;99.90;;;-141.84;90.75;18700.25;5034072;28;20243;-63
2022/11/23 07:50:44;;;;;;;17.00;11.97;;;3.90;99.90;;;-141.84;90.80;18726.69;5033669;28;20597;-61
2022/11/23 07:53:12;;;;;;;19.37;12.17;;;4.00;99.90;;;-141.84;90.66;18679.94;5033676;28;20232;-63
2022/11/23 07:55:41;;;;;;;17.67;11.67;;;4.00;99.90;;;-141.84;90.30;18716.53;5031552;28;20257;-65
2022/11/23 07:58:11;;;;;;;15.87;11.47;;;4.10;99.90;;;-141.84;90.21;18712.47;5033057;28;20233;-62
2022/11/23 08:00:39;;;;;;;14.97;10.00;;;4.10;99.90;;;-141.84;90.00;18708.41;5033396;28;20862;-62
2022/11/23 08:03:10;;;;;;;13.97;10.90;;;4.20;99.90;;;-141.84;89.78;18716.53;5034055;28;20211;-63
2022/11/23 08:05:56;;;;;;;18.07;12.00;;;4.20;99.90;;;-141.84;89.34;18736.84;5033433;28;20839;-63
2022/11/23 08:08:24;;;;;;;18.43;11.00;;;4.20;99.90;;;-141.84;89.07;18722.63;5033284;28;20252;-62
2022/11/23 08:10:53;;;;;;;18.37;13.53;;;4.20;99.90;;;-141.84;88.77;18728.72;5032971;28;20232;-64
2022/11/23 08:13:22;;;;;;;20.90;13.40;;;4.30;99.90;;;-141.84;88.44;18706.38;5033336;28;20226;-62
2022/11/23 08:15:50;;;;;;;18.37;14.07;;;4.40;99.90;;;-141.84;88.26;18747.00;5033202;28;20205;-61
2022/11/23 08:18:23;;;;;;;20.40;13.70;;;4.50;99.90;;;-141.84;87.84;18763.25;5033763;28;20206;-64
2022/11/23 08:20:51;;;;;;;17.20;12.07;;;4.60;99.90;;;-141.84;87.53;18740.91;5032849;28;20253;-63
2022/11/23 08:23:21;;;;;;;17.50;11.73;;;4.70;99.90;;;-141.84;86.94;18765.28;5033156;28;20225;-61
2022/11/23 08:25:49;;;;;;;19.87;12.43;;;4.70;99.90;;;-141.84;86.76;18773.41;5032662;28;20288;-61
2022/11/23 08:28:18;;;;;;;16.67;11.23;;;4.80;99.90;;;-141.84;86.32;18793.72;5033237;28;20296;-62
2022/11/23 08:30:46;;;;;;;14.57;11.37;;;4.90;99.90;;;-141.84;85.54;18818.09;5033135;28;20202;-61
2022/11/23 08:33:15;;;;;;;14.23;10.07;;;5.00;99.90;;;-141.84;84.73;18797.78;5033202;28;20213;-61
2022/11/23 08:35:44;;;;;;;13.10;9.77;;;5.20;99.90;;;-141.84;83.05;18826.25;5032669;28;20724;-61
2022/11/23 08:38:12;;;;;;;11.83;9.57;;;5.40;99.90;;;-141.84;82.49;18832.34;5032859;28;20245;-61
2022/11/23 08:40:42;;;;;;;11.30;9.50;;;5.60;99.90;;;-141.84;81.71;18877.03;5032887;28;20225;-63
2022/11/23 08:43:10;;;;;;;11.33;8.90;;;5.80;99.90;;;-141.84;79.95;18872.97;5032603;28;20261;-61
2022/11/23 08:45:38;;;;;;;11.27;8.27;;;6.00;99.90;;;-141.84;79.15;18925.81;5032883;28;20202;-62
2022/11/23 08:48:07;;;;;;;15.40;9.40;;;6.20;99.90;;;-141.84;78.53;18931.91;5032779;28;20245;-60
2022/11/23 08:50:36;;;;;;;10.30;8.20;;;6.30;99.90;;;-141.84;77.15;18919.69;5031619;28;20226;-61
2022/11/23 08:53:05;;;;;;;15.23;8.77;;;6.40;99.90;;;-141.84;76.61;18942.06;5032520;28;20517;-62
2022/11/23 08:55:33;;;;;;;12.27;8.77;;;6.30;99.90;;;-141.84;74.83;18960.34;5032577;28;20333;-62
2022/11/23 08:58:03;;;;;;;10.07;8.17;;;6.30;99.90;;;-141.84;74.57;18964.41;5032177;28;20638;-61
2022/11/23 09:00:37;;;;;;;11.93;8.43;;;6.30;99.90;;;-141.84;75.29;18986.75;5032542;28;20190;-62
2022/11/23 09:03:05;;;;;;;11.63;8.50;;;6.30;99.90;;;-141.84;75.26;18972.53;5032623;28;20206;-61
2022/11/23 09:05:33;;;;;;;12.83;8.60;;;6.30;99.90;;;-141.84;75.45;18968.47;5032174;28;20613;-60
2022/11/23 09:08:02;;;;;;;13.90;9.20;;;6.40;99.90;;;-141.84;75.26;18966.44;5032110;28;20260;-61
2022/11/23 09:10:30;;;;;;;11.33;8.17;;;6.40;99.90;;;-141.84;75.26;19000.97;5031825;28;20234;-60
2022/11/23 09:12:59;;;;;;;10.90;8.80;;;6.40;99.90;;;-141.84;75.22;18972.53;5031767;28;20233;-63
2022/11/23 09:15:29;;;;;;;12.07;8.30;;;6.50;99.90;;;-141.84;75.71;18950.19;5031887;28;20202;-62
2022/11/23 09:17:58;;;;;;;11.77;8.20;;;6.40;99.90;;;-141.84;75.93;18970.50;5051756;28;20283;-62
2022/11/23 09:20:26;;;;;;;10.63;7.90;;;6.40;99.90;;;-141.84;76.57;18976.59;5051672;28;20225;-62
2022/11/23 09:22:55;;;;;;;19.33;8.60;;;6.40;99.90;;;-141.84;76.21;18964.41;5051858;28;20221;-62
2022/11/23 09:25:24;;;;;;;10.43;7.63;;;6.40;99.90;;;-141.84;75.35;18990.81;5052077;28;20639;-61
2022/11/23 09:27:58;;;;;;;11.63;7.70;;;6.50;99.90;;;-141.84;75.41;18972.53;5051682;28;20230;-60
2022/11/23 09:30:28;;;;;;;13.03;7.80;;;6.70;99.90;;;-141.84;75.19;19023.34;5052055;28;20731;-61
2022/11/23 09:32:57;;;;;;;12.83;8.27;;;6.80;99.90;;;-141.84;73.42;19039.59;5051492;28;20605;-61
2022/11/23 09:35:25;;;;;;;9.97;7.73;;;7.00;99.90;;;-141.84;73.22;19027.41;5051581;28;20660;-61
2022/11/23 09:37:57;;;;;;;10.90;7.70;;;7.10;99.90;;;-141.84;73.03;19041.63;5051442;28;20692;-61
2022/11/23 09:40:31;;;;;;;8.73;7.80;;;7.10;99.90;;;-141.84;71.80;19094.44;5040218;28;20260;-61
2022/11/23 09:43:32;;;;;;;10.47;7.83;;;7.20;99.90;;;-141.84;71.53;19078.19;5031382;28;20600;-60
2022/11/23 09:46:17;;;;;;;9.13;7.73;;;7.30;99.90;;;-141.84;71.89;19106.66;5031523;28;20233;-61
2022/11/23 09:49:12;;;;;;;9.13;7.33;;;7.40;99.90;;;-141.84;71.42;19135.09;5031054;28;20226;-62
2022/11/23 09:51:43;;;;;;;8.97;7.37;;;7.60;99.90;;;-141.84;70.54;19126.97;5031402;28;20254;-62
2022/11/23 09:54:28;;;;;;;10.00;7.10;;;7.60;99.90;;;-141.84;70.88;19133.06;5031925;28;20196;-60
2022/11/23 09:56:58;;;;;;;11.47;7.47;;;7.70;99.90;;;-141.84;70.97;19139.16;5031271;28;20202;-60
2022/11/23 09:59:41;;;;;;;12.50;7.10;;;7.70;99.90;;;-141.84;71.48;19124.94;5014905;28;20749;-60
2022/11/23 10:02:22;;;;;;;10.13;7.30;;;7.60;99.90;;;-141.84;71.48;19137.13;5011351;28;20230;-60
2022/11/23 10:04:53;;;;;;;9.00;7.10;;;7.70;99.90;;;-141.84;71.22;19122.91;5011324;28;20481;-61
2022/11/23 10:07:56;;;;;;;8.77;7.03;;;7.70;99.90;;;-141.84;70.36;19135.09;5011305;28;20226;-63
2022/11/23 10:10:39;;;;;;;11.33;7.43;;;7.80;99.90;;;-141.84;71.10;19112.75;5011186;28;20230;-63
2022/11/23 10:13:26;;;;;;;10.80;6.80;;;7.60;99.90;;;-141.84;70.73;19147.28;5011009;28;20254;-62
2022/11/23 10:16:29;;;;;;;9.43;6.33;;;8.00;99.90;;;-141.84;68.96;19226.53;5011128;28;20258;-61
2022/11/23 10:19:12;;;;;;;9.97;6.40;;;8.20;99.90;;;-141.84;68.43;19236.69;5010175;28;20280;-62